createdAt,value
2023-05-14T00:01:10.761Z,99.54
2023-05-14T00:06:12.291Z,99.05
2023-05-14T00:11:13.803Z,99.60
2023-05-14T00:16:16.016Z,100.00
2023-05-14T00:21:17.592Z,100.00
2023-05-14T00:26:20.225Z,100.00
2023-05-14T00:31:22.124Z,100.00
2023-05-14T00:36:23.726Z,100.00
2023-05-14T00:41:25.511Z,100.00
2023-05-14T00:46:27.643Z,100.00
2023-05-14T00:51:29.535Z,100.00
2023-05-14T00:56:31.700Z,100.00
2023-05-14T01:01:33.565Z,100.00
2023-05-14T01:06:53.796Z,100.00
2023-05-14T01:12:05.905Z,100.00
2023-05-14T01:17:10.728Z,100.00
2023-05-14T01:22:12.720Z,100.00
2023-05-14T01:27:27.800Z,100.00
2023-05-14T01:32:30.965Z,100.00
2023-05-14T01:37:32.923Z,100.00
2023-05-14T01:42:34.894Z,100.00
2023-05-14T01:47:36.596Z,100.00
2023-05-14T01:52:38.178Z,100.00
2023-05-14T01:57:39.721Z,100.00
2023-05-14T02:02:41.406Z,100.00
2023-05-14T02:07:45.825Z,100.00
2023-05-14T02:12:47.316Z,100.00
2023-05-14T02:17:48.847Z,100.00
2023-05-14T02:22:50.479Z,100.00
2023-05-14T02:27:52.022Z,100.00
2023-05-14T02:32:53.616Z,100.00
2023-05-14T02:37:56.215Z,100.00
2023-05-14T02:42:57.871Z,100.00
2023-05-14T02:47:59.441Z,100.00
2023-05-14T02:53:01.782Z,100.00
2023-05-14T02:58:03.476Z,100.00
2023-05-14T03:03:05.088Z,100.00
2023-05-14T03:08:07.397Z,100.00
2023-05-14T03:13:08.990Z,100.00
2023-05-14T03:18:10.641Z,100.00
2023-05-14T03:23:12.547Z,100.00
2023-05-14T03:28:14.134Z,100.00
2023-05-14T03:33:15.781Z,100.00
2023-05-14T03:38:17.549Z,100.00
2023-05-14T03:43:21.566Z,100.00
2023-05-14T03:48:24.029Z,100.00
2023-05-14T03:53:25.619Z,100.00
2023-05-14T03:58:27.124Z,100.00
2023-05-14T04:03:31.316Z,100.00
2023-05-14T04:08:33.131Z,100.00
2023-05-14T04:13:35.296Z,100.00
2023-05-14T04:18:37.007Z,100.00
2023-05-14T04:23:38.621Z,100.00
2023-05-14T04:28:40.535Z,100.00
2023-05-14T04:33:42.265Z,100.00
2023-05-14T04:38:43.761Z,100.00
2023-05-14T04:43:47.241Z,100.00
2023-05-14T04:48:49.189Z,100.00
2023-05-14T04:53:50.731Z,100.00
2023-05-14T04:58:52.313Z,100.00
2023-05-14T05:03:53.949Z,100.00
2023-05-14T05:08:56.148Z,100.00
2023-05-14T05:13:57.673Z,100.00
2023-05-14T05:18:59.343Z,100.00
2023-05-14T05:24:00.932Z,100.00
2023-05-14T05:29:04.110Z,100.00
2023-05-14T05:34:05.985Z,100.00
2023-05-14T05:39:07.576Z,100.00
2023-05-14T05:44:09.356Z,100.00
2023-05-14T05:49:10.960Z,100.00
2023-05-14T05:54:12.456Z,100.00
2023-05-14T05:59:14.031Z,100.00
2023-05-14T06:04:15.624Z,100.00
2023-05-14T06:09:17.155Z,100.00
2023-05-14T06:14:18.704Z,100.00
2023-05-14T06:19:20.346Z,100.00
2023-05-14T06:24:21.920Z,100.00
2023-05-14T06:29:23.479Z,99.32
2023-05-14T06:34:27.639Z,99.67
2023-05-14T06:39:29.379Z,98.30
2023-05-14T06:44:31.642Z,92.38
2023-05-14T06:49:33.254Z,89.94
2023-05-14T06:54:34.808Z,90.70
2023-05-14T06:59:36.386Z,91.03
2023-05-14T07:04:37.977Z,90.40
2023-05-14T07:09:39.576Z,90.96
2023-05-14T07:14:41.111Z,89.76
2023-05-14T07:19:42.648Z,89.34
2023-05-14T07:24:44.247Z,87.11
2023-05-14T07:29:45.829Z,86.59
2023-05-14T07:34:47.408Z,85.63
2023-05-14T07:39:51.373Z,83.73
2023-05-14T07:44:52.919Z,83.92
2023-05-14T07:49:55.595Z,82.09
2023-05-14T07:54:57.186Z,81.10
2023-05-14T07:59:58.814Z,82.25
2023-05-14T08:05:00.551Z,80.87
2023-05-14T08:10:02.356Z,79.18
2023-05-14T08:15:04.455Z,79.02
2023-05-14T08:20:06.915Z,79.56
2023-05-14T08:25:08.665Z,78.59
2023-05-14T08:30:10.651Z,77.88
2023-05-14T08:35:12.283Z,78.09
2023-05-14T08:40:13.988Z,76.82
2023-05-14T08:45:20.646Z,77.29
2023-05-14T08:50:23.527Z,76.11
2023-05-14T08:55:26.730Z,75.24
2023-05-14T09:00:28.431Z,73.94
2023-05-14T09:05:30.055Z,73.24
2023-05-14T09:10:32.497Z,72.64
2023-05-14T09:15:36.344Z,70.13
2023-05-14T09:20:38.645Z,68.46
2023-05-14T09:25:40.287Z,67.10
2023-05-14T09:30:41.830Z,67.70
2023-05-14T09:35:43.506Z,67.48
2023-05-14T09:40:46.436Z,66.28
2023-05-14T09:45:50.102Z,65.77
2023-05-14T09:50:52.289Z,65.50
2023-05-14T09:55:53.819Z,65.58
2023-05-14T10:00:57.779Z,65.12
2023-05-14T10:06:06.437Z,62.70
2023-05-14T10:11:13.651Z,62.50
2023-05-14T10:16:28.584Z,60.52
2023-05-14T10:21:32.125Z,59.86
2023-05-14T10:26:39.113Z,60.55
2023-05-14T10:31:54.069Z,60.66
2023-05-14T10:36:59.768Z,59.30
2023-05-14T10:42:01.311Z,57.82
2023-05-14T10:47:03.384Z,55.14
2023-05-14T10:52:08.954Z,56.27
2023-05-14T10:57:11.712Z,55.84
2023-05-14T11:02:23.197Z,56.40
2023-05-14T11:07:29.611Z,56.59
2023-05-14T11:12:33.669Z,56.16
2023-05-14T11:17:36.660Z,56.32
2023-05-14T11:22:40.047Z,55.31
2023-05-14T11:27:43.269Z,54.11
2023-05-14T11:32:49.328Z,56.04
2023-05-14T11:37:54.986Z,53.88
2023-05-14T11:42:56.645Z,54.77
2023-05-14T11:48:00.431Z,54.29
2023-05-14T11:53:02.057Z,54.56
2023-05-14T11:58:03.704Z,53.19
2023-05-14T12:03:05.700Z,52.48
2023-05-14T12:08:31.750Z,53.33
2023-05-14T12:13:33.445Z,53.32
2023-05-14T12:18:35.724Z,52.52
2023-05-14T12:23:38.823Z,53.16
2023-05-14T12:28:43.466Z,52.47
2023-05-14T12:33:45.787Z,53.53
2023-05-14T12:38:47.432Z,54.15
2023-05-14T12:43:49.719Z,54.68
2023-05-14T12:48:53.203Z,54.99
2023-05-14T12:53:55.084Z,55.87
2023-05-14T12:58:56.742Z,54.81
2023-05-14T13:03:59.631Z,54.53
2023-05-14T13:09:02.429Z,53.97
2023-05-14T13:14:04.010Z,53.59
2023-05-14T13:19:05.663Z,53.36
2023-05-14T13:24:07.529Z,53.89
2023-05-14T13:29:11.464Z,55.97
2023-05-14T13:34:13.197Z,54.06
2023-05-14T13:39:14.833Z,53.97
2023-05-14T13:44:16.834Z,54.04
2023-05-14T13:49:18.787Z,53.52
2023-05-14T13:54:20.351Z,54.01
2023-05-14T13:59:22.042Z,55.59
2023-05-14T14:04:25.654Z,54.94
2023-05-14T14:09:27.171Z,55.53
2023-05-14T14:14:28.704Z,56.67
2023-05-14T14:19:30.228Z,55.73
2023-05-14T14:24:31.768Z,54.88
2023-05-14T14:29:34.396Z,55.99
2023-05-14T14:34:36.147Z,56.09
2023-05-14T14:39:37.845Z,55.39
2023-05-14T14:44:39.381Z,54.46
2023-05-14T14:49:41.017Z,54.38
2023-05-14T14:54:42.555Z,53.39
2023-05-14T14:59:44.309Z,54.67
2023-05-14T15:04:45.976Z,54.72
2023-05-14T15:09:47.604Z,56.27
2023-05-14T15:14:49.167Z,57.09
2023-05-14T15:19:50.730Z,57.78
2023-05-14T15:24:52.338Z,57.56
2023-05-14T15:29:53.876Z,57.65
2023-05-14T15:34:55.648Z,58.04
2023-05-14T15:39:57.173Z,57.53
2023-05-14T15:44:58.723Z,56.24
2023-05-14T15:50:00.690Z,55.92
2023-05-14T15:55:02.604Z,55.23
2023-05-14T16:00:10.399Z,54.87
2023-05-14T16:05:13.689Z,54.34
2023-05-14T16:10:15.648Z,54.47
2023-05-14T16:15:17.279Z,55.32
2023-05-14T16:20:18.868Z,56.07
2023-05-14T16:25:20.456Z,56.56
2023-05-14T16:30:22.167Z,56.20
2023-05-14T16:35:23.792Z,56.38
2023-05-14T16:40:25.747Z,56.28
2023-05-14T16:45:27.496Z,56.33
2023-05-14T16:50:29.141Z,56.48
2023-05-14T16:55:30.816Z,57.27
2023-05-14T17:00:32.402Z,57.68
2023-05-14T17:05:36.576Z,58.94
2023-05-14T17:10:38.149Z,59.59
2023-05-14T17:15:41.877Z,59.33
2023-05-14T17:20:43.480Z,59.86
2023-05-14T17:25:45.114Z,59.73
2023-05-14T17:30:46.725Z,59.00
2023-05-14T17:35:48.779Z,59.54
2023-05-14T17:40:50.391Z,59.38
2023-05-14T17:45:54.560Z,60.42
2023-05-14T17:50:56.406Z,59.97
2023-05-14T17:55:57.942Z,60.11
2023-05-14T18:00:59.511Z,60.37
2023-05-14T18:06:01.175Z,61.41
2023-05-14T18:11:02.736Z,61.20
2023-05-14T18:16:04.672Z,61.90
2023-05-14T18:21:06.281Z,61.80
2023-05-14T18:26:07.894Z,61.93
2023-05-14T18:31:09.652Z,62.76
2023-05-14T18:36:11.622Z,62.96
2023-05-14T18:41:13.184Z,64.42
2023-05-14T18:46:15.869Z,64.62
2023-05-14T18:51:17.421Z,63.69
2023-05-14T18:56:19.162Z,63.73
2023-05-14T19:01:21.380Z,64.37
2023-05-14T19:06:23.007Z,64.39
2023-05-14T19:11:24.654Z,65.89
2023-05-14T19:16:26.664Z,67.01
2023-05-14T19:21:28.281Z,67.83
2023-05-14T19:26:29.850Z,69.19
2023-05-14T19:31:31.465Z,70.45
2023-05-14T19:36:33.134Z,70.78
2023-05-14T19:41:34.622Z,71.58
2023-05-14T19:46:36.241Z,72.70
2023-05-14T19:51:37.877Z,74.11
2023-05-14T19:56:39.447Z,75.17
2023-05-14T20:01:41.422Z,76.28
2023-05-14T20:06:45.402Z,78.18
2023-05-14T20:11:47.006Z,79.34
2023-05-14T20:16:49.049Z,80.44
2023-05-14T20:21:50.614Z,81.42
2023-05-14T20:26:52.322Z,83.36
2023-05-14T20:31:53.892Z,84.31
2023-05-14T20:36:56.015Z,85.47
2023-05-14T20:41:57.534Z,85.23
2023-05-14T20:46:59.254Z,86.52
2023-05-14T20:52:00.862Z,87.15
2023-05-14T20:57:02.423Z,87.60
2023-05-14T21:02:04.555Z,87.59
2023-05-14T21:07:06.842Z,88.15
2023-05-14T21:12:08.765Z,89.33
2023-05-14T21:17:10.784Z,89.22
2023-05-14T21:22:12.825Z,89.43
2023-05-14T21:27:14.373Z,90.18
2023-05-14T21:32:16.041Z,90.19
2023-05-14T21:37:17.636Z,90.99
2023-05-14T21:42:20.983Z,91.83
2023-05-14T21:47:22.684Z,92.74
2023-05-14T21:52:24.239Z,93.01
2023-05-14T21:57:28.047Z,93.02
2023-05-14T22:02:30.239Z,93.39
2023-05-14T22:07:32.820Z,93.89
2023-05-14T22:12:34.374Z,94.16
2023-05-14T22:17:36.072Z,94.58
2023-05-14T22:22:38.004Z,94.67
2023-05-14T22:27:39.539Z,94.72
2023-05-14T22:32:41.124Z,95.14
2023-05-14T22:37:42.689Z,95.17
2023-05-14T22:42:44.274Z,95.58
2023-05-14T22:47:45.966Z,96.37
2023-05-14T22:52:47.503Z,96.59
2023-05-14T22:57:49.105Z,96.99
2023-05-14T23:02:50.874Z,97.94
2023-05-14T23:07:53.334Z,97.98
2023-05-14T23:12:54.970Z,99.07
2023-05-14T23:17:56.684Z,99.33
2023-05-14T23:22:58.325Z,99.62
2023-05-14T23:27:59.903Z,100.00
2023-05-14T23:33:01.692Z,100.00
2023-05-14T23:38:04.547Z,100.00
2023-05-14T23:43:06.066Z,100.00
2023-05-14T23:48:09.780Z,100.00
2023-05-14T23:53:11.303Z,100.00
2023-05-14T23:58:12.898Z,100.00
